createdAt,value
2022-12-31T00:02:00.274Z,4.00
2022-12-31T00:04:29.900Z,4.23
2022-12-31T00:06:59.428Z,3.89
2022-12-31T00:09:28.970Z,3.94
2022-12-31T00:11:58.531Z,4.03
2022-12-31T00:14:28.092Z,4.09
2022-12-31T00:16:57.646Z,4.20
2022-12-31T00:19:27.201Z,4.17
2022-12-31T00:21:56.830Z,4.06
2022-12-31T00:24:31.101Z,4.00
2022-12-31T00:27:00.750Z,4.01
2022-12-31T00:29:30.340Z,3.87
2022-12-31T00:31:59.884Z,3.99
2022-12-31T00:34:29.423Z,3.91
2022-12-31T00:36:59.005Z,4.07
2022-12-31T00:39:28.621Z,4.01
2022-12-31T00:41:58.183Z,4.12
2022-12-31T00:44:27.725Z,4.00
2022-12-31T00:46:57.236Z,4.21
2022-12-31T00:49:26.734Z,4.04
2022-12-31T00:51:56.227Z,3.96
2022-12-31T00:54:25.803Z,4.07
2022-12-31T00:56:55.440Z,3.96
2022-12-31T00:59:25.122Z,3.90
2022-12-31T01:01:54.795Z,4.00
2022-12-31T01:04:24.373Z,4.04
2022-12-31T01:06:53.968Z,4.12
2022-12-31T01:09:23.593Z,4.21
2022-12-31T01:11:53.265Z,4.08
2022-12-31T01:14:23.057Z,4.14
2022-12-31T01:16:54.473Z,4.07
2022-12-31T01:19:29.171Z,3.94
2022-12-31T01:21:58.702Z,4.09
2022-12-31T01:24:28.245Z,4.27
2022-12-31T01:26:58.058Z,4.19
2022-12-31T01:29:27.777Z,4.25
2022-12-31T01:31:57.326Z,4.31
2022-12-31T01:34:26.907Z,4.06
2022-12-31T01:36:56.431Z,4.06
2022-12-31T01:39:26.102Z,4.21
2022-12-31T01:41:55.760Z,4.05
2022-12-31T01:44:27.954Z,4.27
2022-12-31T01:47:02.681Z,4.15
2022-12-31T01:49:53.556Z,4.18
2022-12-31T01:52:37.498Z,4.27
2022-12-31T01:55:20.282Z,4.13
2022-12-31T01:57:57.557Z,4.21
2022-12-31T02:00:27.354Z,4.22
2022-12-31T02:02:56.899Z,4.10
2022-12-31T02:05:48.257Z,4.33
2022-12-31T02:08:18.307Z,4.33
2022-12-31T02:10:47.781Z,4.28
2022-12-31T02:13:17.537Z,4.40
2022-12-31T02:16:17.504Z,4.35
2022-12-31T02:19:32.782Z,4.28
2022-12-31T02:22:45.410Z,4.42
2022-12-31T02:26:01.479Z,4.36
2022-12-31T02:29:21.382Z,4.36
2022-12-31T02:31:58.051Z,4.09
2022-12-31T02:34:50.824Z,4.30
2022-12-31T02:37:23.658Z,4.35
2022-12-31T02:39:53.886Z,4.26
2022-12-31T02:42:23.441Z,4.31
2022-12-31T02:44:53.076Z,4.47
2022-12-31T02:48:31.752Z,4.30
2022-12-31T02:51:46.894Z,4.15
2022-12-31T02:55:00.073Z,4.06
2022-12-31T02:57:54.886Z,4.43
2022-12-31T03:00:43.428Z,4.40
2022-12-31T03:03:13.099Z,4.32
2022-12-31T03:05:44.269Z,4.33
2022-12-31T03:08:23.798Z,4.39
2022-12-31T03:10:53.396Z,4.47
2022-12-31T03:13:22.115Z,4.47
2022-12-31T03:15:51.685Z,4.39
2022-12-31T03:18:41.371Z,4.42
2022-12-31T03:21:32.354Z,4.38
2022-12-31T03:24:20.374Z,4.14
2022-12-31T03:26:49.937Z,4.20
2022-12-31T03:29:19.436Z,4.17
2022-12-31T03:31:48.937Z,4.10
2022-12-31T03:34:18.457Z,4.09
2022-12-31T03:36:47.977Z,4.16
2022-12-31T03:39:17.491Z,4.23
2022-12-31T03:41:47.097Z,4.02
2022-12-31T03:44:16.640Z,4.05
2022-12-31T03:46:46.156Z,4.27
2022-12-31T03:49:15.905Z,4.24
2022-12-31T03:51:45.369Z,4.04
2022-12-31T03:54:14.901Z,4.13
2022-12-31T03:56:44.447Z,4.12
2022-12-31T03:59:14.035Z,4.25
2022-12-31T04:01:43.617Z,4.37
2022-12-31T04:04:13.194Z,3.98
2022-12-31T04:06:42.734Z,4.33
2022-12-31T04:09:12.277Z,4.32
2022-12-31T04:11:41.857Z,4.14
2022-12-31T04:14:11.906Z,4.21
2022-12-31T04:16:41.541Z,4.03
2022-12-31T04:19:12.419Z,4.06
2022-12-31T04:21:42.043Z,4.28
2022-12-31T04:24:11.708Z,4.22
2022-12-31T04:26:41.376Z,4.23
2022-12-31T04:29:12.092Z,4.24
2022-12-31T04:31:41.773Z,4.31
2022-12-31T04:34:11.485Z,4.28
2022-12-31T04:36:41.051Z,4.00
2022-12-31T04:39:10.605Z,4.18
2022-12-31T04:41:40.136Z,4.16
2022-12-31T04:44:09.865Z,4.24
2022-12-31T04:46:39.565Z,4.34
2022-12-31T04:49:09.482Z,4.37
2022-12-31T04:51:39.675Z,4.44
2022-12-31T04:54:08.452Z,4.11
2022-12-31T04:56:38.067Z,4.20
2022-12-31T04:59:08.969Z,4.02
2022-12-31T05:01:39.633Z,4.18
2022-12-31T05:04:09.247Z,4.22
2022-12-31T05:06:38.836Z,4.12
2022-12-31T05:09:08.352Z,4.07
2022-12-31T05:11:38.273Z,4.33
2022-12-31T05:14:07.765Z,4.25
2022-12-31T05:16:37.332Z,4.07
2022-12-31T05:19:09.656Z,4.17
2022-12-31T05:21:39.496Z,4.20
2022-12-31T05:24:09.199Z,4.24
2022-12-31T05:26:38.659Z,4.20
2022-12-31T05:29:08.680Z,4.35
2022-12-31T05:31:38.171Z,4.35
2022-12-31T05:34:07.615Z,4.36
2022-12-31T05:36:37.073Z,4.53
2022-12-31T05:39:06.559Z,4.23
2022-12-31T05:41:36.411Z,4.32
2022-12-31T05:44:05.993Z,4.37
2022-12-31T05:46:35.530Z,4.25
2022-12-31T05:49:05.112Z,4.32
2022-12-31T05:51:34.731Z,4.28
2022-12-31T05:54:04.584Z,4.46
2022-12-31T05:56:34.077Z,4.40
2022-12-31T05:59:03.625Z,4.21
2022-12-31T06:01:33.110Z,4.34
2022-12-31T06:04:02.729Z,4.27
2022-12-31T06:06:32.728Z,4.23
2022-12-31T06:09:03.482Z,4.32
2022-12-31T06:11:32.994Z,4.29
2022-12-31T06:14:02.845Z,4.25
2022-12-31T06:16:32.366Z,4.18
2022-12-31T06:19:02.879Z,4.39
2022-12-31T06:21:32.462Z,4.10
2022-12-31T06:24:01.928Z,4.32
2022-12-31T06:26:31.360Z,4.34
2022-12-31T06:29:00.885Z,4.16
2022-12-31T06:31:30.565Z,4.06
2022-12-31T06:34:00.125Z,4.36
2022-12-31T06:36:30.652Z,4.28
2022-12-31T06:39:00.344Z,4.12
2022-12-31T06:41:32.522Z,4.18
2022-12-31T06:44:02.076Z,4.29
2022-12-31T06:46:31.755Z,4.47
2022-12-31T06:49:01.264Z,4.39
2022-12-31T06:51:30.887Z,4.47
2022-12-31T06:54:00.366Z,4.26
2022-12-31T06:56:34.381Z,4.28
2022-12-31T06:59:05.641Z,4.33
2022-12-31T07:02:27.418Z,4.33
2022-12-31T07:05:41.043Z,4.31
2022-12-31T07:08:52.464Z,4.30
2022-12-31T07:11:30.681Z,4.10
2022-12-31T07:14:46.897Z,4.18
2022-12-31T07:17:58.161Z,4.37
2022-12-31T07:20:28.538Z,4.40
2022-12-31T07:22:58.563Z,4.35
2022-12-31T07:25:28.750Z,4.44
2022-12-31T07:29:04.699Z,4.46
2022-12-31T07:32:21.584Z,4.40
2022-12-31T07:34:59.678Z,4.41
2022-12-31T07:38:29.193Z,4.50
2022-12-31T07:41:47.223Z,4.49
2022-12-31T07:44:40.555Z,4.59
2022-12-31T07:47:23.865Z,4.56
2022-12-31T07:49:55.001Z,4.55
2022-12-31T07:52:25.508Z,4.76
2022-12-31T07:54:55.067Z,4.78
2022-12-31T07:57:33.832Z,4.66
2022-12-31T08:00:16.111Z,4.76
2022-12-31T08:03:59.342Z,4.73
2022-12-31T08:07:06.667Z,4.81
2022-12-31T08:10:23.532Z,4.70
2022-12-31T08:13:02.482Z,4.79
2022-12-31T08:15:32.476Z,5.01
2022-12-31T08:18:02.378Z,5.30
2022-12-31T08:20:36.684Z,5.24
2022-12-31T08:24:14.023Z,5.26
2022-12-31T08:27:17.273Z,5.37
2022-12-31T08:30:12.584Z,5.41
2022-12-31T08:33:40.599Z,5.30
2022-12-31T08:36:57.120Z,5.27
2022-12-31T08:40:02.968Z,5.39
2022-12-31T08:43:07.850Z,5.57
2022-12-31T08:45:52.425Z,5.58
2022-12-31T08:48:43.245Z,5.81
2022-12-31T08:51:22.338Z,5.67
2022-12-31T08:53:53.537Z,5.67
2022-12-31T08:56:42.009Z,5.47
2022-12-31T08:59:46.163Z,5.66
2022-12-31T09:03:28.675Z,5.54
2022-12-31T09:06:21.257Z,5.56
2022-12-31T09:09:39.108Z,5.55
2022-12-31T09:12:29.442Z,5.43
2022-12-31T09:15:21.675Z,5.61
2022-12-31T09:17:52.625Z,5.62
2022-12-31T09:20:42.681Z,5.61
2022-12-31T09:23:14.530Z,5.92
2022-12-31T09:26:39.525Z,5.89
2022-12-31T09:29:51.288Z,6.04
2022-12-31T09:33:00.773Z,6.21
2022-12-31T09:35:57.116Z,6.04
2022-12-31T09:38:53.262Z,6.11
2022-12-31T09:42:28.999Z,6.32
2022-12-31T09:46:01.167Z,6.42
2022-12-31T09:49:01.115Z,6.41
2022-12-31T09:52:07.696Z,6.47
2022-12-31T09:55:22.950Z,6.32
2022-12-31T09:58:35.289Z,6.45
2022-12-31T10:01:24.881Z,6.31
2022-12-31T10:04:43.759Z,6.75
2022-12-31T10:07:33.936Z,6.69
2022-12-31T10:10:13.886Z,6.72
2022-12-31T10:13:41.500Z,6.63
2022-12-31T10:16:32.083Z,6.52
2022-12-31T10:19:35.878Z,6.96
2022-12-31T10:22:45.194Z,6.83
2022-12-31T10:26:12.544Z,6.77
2022-12-31T10:29:19.392Z,6.88
2022-12-31T10:32:17.888Z,6.93
2022-12-31T10:35:46.109Z,7.38
2022-12-31T10:39:00.767Z,7.18
2022-12-31T10:42:05.655Z,7.17
2022-12-31T10:45:15.587Z,7.11
2022-12-31T10:48:32.300Z,7.32
2022-12-31T10:51:32.217Z,7.78
2022-12-31T10:54:45.212Z,7.40
2022-12-31T10:57:44.494Z,7.41
2022-12-31T11:00:25.234Z,7.21
2022-12-31T11:03:45.697Z,7.30
2022-12-31T11:07:03.523Z,7.20
2022-12-31T11:09:55.248Z,7.50
2022-12-31T11:13:02.865Z,7.52
2022-12-31T11:16:47.862Z,7.23
2022-12-31T11:20:01.517Z,7.17
2022-12-31T11:23:01.018Z,7.59
2022-12-31T11:26:35.094Z,7.50
2022-12-31T11:29:22.364Z,7.40
2022-12-31T11:32:36.608Z,7.38
2022-12-31T11:35:52.591Z,7.37
2022-12-31T11:38:51.662Z,7.53
2022-12-31T11:42:14.523Z,7.76
2022-12-31T11:45:15.791Z,7.63
2022-12-31T11:48:30.240Z,7.63
2022-12-31T11:51:50.217Z,7.82
2022-12-31T11:55:00.721Z,7.86
2022-12-31T11:57:42.965Z,7.95
2022-12-31T12:00:23.231Z,7.73
2022-12-31T12:03:01.750Z,8.13
2022-12-31T12:05:32.700Z,8.26
2022-12-31T12:08:03.027Z,8.41
2022-12-31T12:11:08.199Z,7.88
2022-12-31T12:13:37.660Z,7.82
2022-12-31T12:16:09.157Z,8.18
2022-12-31T12:18:49.105Z,8.25
2022-12-31T12:21:24.607Z,8.03
2022-12-31T12:24:14.676Z,8.04
2022-12-31T12:26:45.656Z,7.95
2022-12-31T12:29:23.747Z,7.84
2022-12-31T12:32:16.885Z,7.86
2022-12-31T12:34:49.908Z,7.86
2022-12-31T12:37:33.276Z,8.17
2022-12-31T12:40:33.423Z,7.93
2022-12-31T12:43:04.182Z,8.04
2022-12-31T12:45:52.067Z,8.12
2022-12-31T12:48:39.790Z,8.12
2022-12-31T12:51:48.739Z,8.05
2022-12-31T12:55:18.620Z,8.20
2022-12-31T12:58:19.392Z,8.36
2022-12-31T13:01:37.430Z,8.29
2022-12-31T13:05:02.401Z,8.14
2022-12-31T13:07:56.430Z,7.99
2022-12-31T13:10:42.084Z,7.95
2022-12-31T13:13:30.799Z,7.97
2022-12-31T13:16:22.578Z,7.93
2022-12-31T13:19:39.922Z,8.14
2022-12-31T13:22:38.312Z,8.09
2022-12-31T13:25:31.640Z,8.20
2022-12-31T13:28:12.400Z,8.62
2022-12-31T13:31:09.905Z,8.70
2022-12-31T13:33:54.832Z,8.48
2022-12-31T13:36:27.840Z,8.73
2022-12-31T13:39:03.132Z,8.91
2022-12-31T13:41:53.985Z,8.51
2022-12-31T13:44:46.312Z,8.47
2022-12-31T13:48:05.770Z,8.36
2022-12-31T13:50:53.159Z,8.23
2022-12-31T13:54:07.515Z,8.48
2022-12-31T13:56:39.923Z,8.32
2022-12-31T13:59:29.985Z,8.73
2022-12-31T14:03:05.142Z,8.70
2022-12-31T14:06:15.359Z,8.66
2022-12-31T14:08:46.194Z,8.65
2022-12-31T14:11:58.681Z,8.74
2022-12-31T14:15:00.238Z,8.65
2022-12-31T14:18:06.278Z,8.37
2022-12-31T14:21:45.100Z,8.24
2022-12-31T14:24:37.683Z,8.16
2022-12-31T14:27:37.467Z,8.11
2022-12-31T14:30:20.791Z,8.26
2022-12-31T14:33:58.196Z,8.05
2022-12-31T14:37:00.102Z,8.36
2022-12-31T14:40:11.546Z,8.27
2022-12-31T14:43:20.528Z,8.38
2022-12-31T14:46:31.877Z,8.17
2022-12-31T14:50:05.678Z,8.13
2022-12-31T14:52:52.854Z,7.89
2022-12-31T14:55:36.599Z,7.80
2022-12-31T14:58:31.665Z,7.61
2022-12-31T15:01:22.460Z,7.57
2022-12-31T15:03:57.525Z,7.74
2022-12-31T15:06:55.174Z,7.85
2022-12-31T15:10:23.182Z,7.70
2022-12-31T15:13:56.648Z,7.67
2022-12-31T15:16:47.253Z,7.72
2022-12-31T15:19:39.519Z,7.50
2022-12-31T15:22:47.736Z,7.28
2022-12-31T15:25:41.558Z,7.20
2022-12-31T15:28:39.822Z,7.28
2022-12-31T15:31:20.473Z,7.14
2022-12-31T15:34:01.190Z,7.46
2022-12-31T15:36:39.480Z,7.40
2022-12-31T15:39:13.352Z,7.47
2022-12-31T15:42:18.636Z,7.31
2022-12-31T15:45:00.070Z,7.23
2022-12-31T15:47:43.041Z,6.96
2022-12-31T15:50:22.127Z,7.30
2022-12-31T15:53:02.251Z,7.34
2022-12-31T15:55:49.503Z,7.75
2022-12-31T15:58:30.463Z,7.90
2022-12-31T16:01:34.418Z,7.59
2022-12-31T16:04:42.722Z,7.24
2022-12-31T16:07:13.436Z,6.99
2022-12-31T16:09:45.248Z,6.93
2022-12-31T16:12:27.853Z,7.34
2022-12-31T16:15:03.272Z,7.36
2022-12-31T16:17:39.862Z,7.19
2022-12-31T16:20:30.220Z,7.23
2022-12-31T16:23:03.170Z,7.08
2022-12-31T16:25:34.241Z,6.78
2022-12-31T16:28:05.071Z,6.72
2022-12-31T16:30:38.519Z,6.69
2022-12-31T16:33:15.404Z,6.90
2022-12-31T16:36:00.866Z,6.89
2022-12-31T16:38:37.947Z,6.91
2022-12-31T16:41:24.559Z,6.82
2022-12-31T16:43:52.650Z,6.60
2022-12-31T16:46:31.045Z,6.34
2022-12-31T16:49:20.025Z,6.24
2022-12-31T16:51:49.819Z,6.47
2022-12-31T16:54:38.396Z,6.13
2022-12-31T16:57:11.138Z,6.14
2022-12-31T16:59:46.485Z,5.89
2022-12-31T17:02:27.467Z,5.94
2022-12-31T17:04:57.234Z,5.63
2022-12-31T17:07:29.621Z,5.76
2022-12-31T17:10:22.646Z,5.79
2022-12-31T17:15:53.920Z,5.83
2022-12-31T17:18:28.930Z,5.80
2022-12-31T17:21:10.204Z,5.78
2022-12-31T17:23:41.746Z,5.56
2022-12-31T17:26:21.085Z,5.57
2022-12-31T17:28:53.906Z,5.64
2022-12-31T17:31:40.484Z,5.83
2022-12-31T17:34:14.029Z,5.57
2022-12-31T17:37:11.574Z,5.91
2022-12-31T17:39:55.070Z,5.56
2022-12-31T17:42:38.358Z,5.42
2022-12-31T17:45:21.296Z,5.25
2022-12-31T17:47:54.057Z,5.37
2022-12-31T17:50:28.643Z,5.38
2022-12-31T17:53:11.294Z,5.11
2022-12-31T17:55:45.587Z,5.44
2022-12-31T17:58:29.756Z,5.21
2022-12-31T18:01:00.889Z,5.02
2022-12-31T18:03:29.125Z,5.07
2022-12-31T18:05:59.009Z,4.94
2022-12-31T18:08:30.417Z,5.10
2022-12-31T18:11:00.184Z,4.96
2022-12-31T18:13:30.923Z,5.09
2022-12-31T18:16:00.647Z,5.09
2022-12-31T18:18:37.501Z,5.32
2022-12-31T18:21:28.394Z,5.24
2022-12-31T18:26:34.859Z,5.30
2022-12-31T18:29:19.573Z,5.17
2022-12-31T18:31:50.666Z,5.19
2022-12-31T18:34:20.404Z,5.33
2022-12-31T18:36:52.096Z,5.33
2022-12-31T18:39:21.847Z,5.20
2022-12-31T18:41:52.281Z,5.58
2022-12-31T18:44:21.014Z,5.31
2022-12-31T18:46:53.166Z,5.40
2022-12-31T18:49:22.976Z,5.32
2022-12-31T18:51:54.368Z,5.56
2022-12-31T18:54:24.954Z,5.47
2022-12-31T18:56:57.180Z,5.41
2022-12-31T18:59:28.015Z,5.49
2022-12-31T19:01:59.012Z,5.37
2022-12-31T19:04:28.737Z,5.37
2022-12-31T19:06:59.267Z,5.55
2022-12-31T19:09:45.967Z,5.48
2022-12-31T19:12:15.676Z,5.60
2022-12-31T19:14:46.237Z,5.45
2022-12-31T19:17:17.692Z,5.46
2022-12-31T19:19:49.115Z,5.53
2022-12-31T19:22:16.944Z,5.55
2022-12-31T19:24:48.343Z,5.66
2022-12-31T19:27:17.140Z,5.70
2022-12-31T19:29:45.005Z,5.60
2022-12-31T19:32:14.616Z,5.64
2022-12-31T19:34:44.263Z,5.59
2022-12-31T19:37:16.340Z,5.55
2022-12-31T19:39:48.097Z,5.53
2022-12-31T19:42:17.790Z,5.64
2022-12-31T19:44:45.587Z,5.55
2022-12-31T19:47:15.284Z,5.66
2022-12-31T19:49:45.044Z,5.52
2022-12-31T19:52:14.617Z,5.52
2022-12-31T19:54:42.487Z,5.51
2022-12-31T19:57:10.316Z,5.53
2022-12-31T19:59:40.049Z,5.50
2022-12-31T20:02:11.142Z,5.60
2022-12-31T20:04:40.964Z,5.29
2022-12-31T20:07:10.697Z,5.40
2022-12-31T20:09:40.305Z,5.38
2022-12-31T20:12:09.093Z,5.36
2022-12-31T20:14:38.758Z,5.36
2022-12-31T20:17:09.381Z,5.17
2022-12-31T20:19:40.119Z,5.06
2022-12-31T20:22:09.747Z,5.34
2022-12-31T20:24:39.991Z,4.87
2022-12-31T20:27:18.079Z,4.83
2022-12-31T20:29:48.154Z,4.87
2022-12-31T20:32:17.772Z,4.88
2022-12-31T20:34:49.210Z,4.87
2022-12-31T20:37:17.129Z,5.00
2022-12-31T20:39:46.749Z,4.98
2022-12-31T20:42:16.374Z,4.88
2022-12-31T20:44:46.819Z,4.73
2022-12-31T20:47:18.389Z,4.61
2022-12-31T20:52:37.661Z,4.71
2022-12-31T20:55:09.688Z,4.52
2022-12-31T20:57:40.052Z,4.67
2022-12-31T21:00:11.023Z,4.88
2022-12-31T21:02:42.455Z,4.86
2022-12-31T21:05:13.019Z,4.32
2022-12-31T21:07:42.753Z,4.46
2022-12-31T21:10:10.838Z,4.16
2022-12-31T21:12:44.620Z,4.22
2022-12-31T21:15:14.663Z,4.09
2022-12-31T21:17:46.711Z,4.31
2022-12-31T21:20:16.816Z,4.03
2022-12-31T21:22:46.457Z,4.06
2022-12-31T21:25:14.277Z,4.09
2022-12-31T21:27:44.825Z,3.88
2022-12-31T21:30:19.589Z,3.57
2022-12-31T21:32:49.745Z,3.73
2022-12-31T21:38:09.824Z,3.70
2022-12-31T21:40:39.525Z,3.87
2022-12-31T21:43:10.014Z,3.85
2022-12-31T21:45:38.272Z,3.79
2022-12-31T21:48:26.019Z,3.80
2022-12-31T21:51:13.013Z,3.80
2022-12-31T21:53:42.718Z,3.72
2022-12-31T21:56:14.768Z,3.61
2022-12-31T21:59:15.456Z,3.76
2022-12-31T22:02:03.692Z,3.79
2022-12-31T22:05:01.461Z,3.63
2022-12-31T22:07:23.047Z,3.65
2022-12-31T22:09:53.500Z,3.91
2022-12-31T22:12:24.096Z,3.87
2022-12-31T22:15:14.524Z,3.82
2022-12-31T22:17:43.346Z,3.86
2022-12-31T22:20:29.363Z,3.97
2022-12-31T22:22:57.390Z,3.39
2022-12-31T22:25:28.850Z,3.16
2022-12-31T22:28:36.354Z,3.17
2022-12-31T22:30:49.767Z,2.99
2022-12-31T22:33:20.318Z,3.06
2022-12-31T22:36:14.503Z,3.22
2022-12-31T22:38:43.302Z,3.06
2022-12-31T22:41:17.221Z,3.38
2022-12-31T22:43:51.460Z,3.52
2022-12-31T22:46:28.007Z,3.31
2022-12-31T22:48:59.607Z,3.69
2022-12-31T22:51:56.903Z,3.52
2022-12-31T22:54:22.163Z,3.29
2022-12-31T22:56:49.942Z,3.10
2022-12-31T22:59:19.666Z,3.23
2022-12-31T23:01:49.315Z,3.35
2022-12-31T23:04:19.068Z,3.44
2022-12-31T23:06:48.968Z,3.64
2022-12-31T23:09:37.909Z,3.35
2022-12-31T23:12:11.175Z,3.45
2022-12-31T23:15:11.197Z,3.46
2022-12-31T23:18:06.281Z,3.36
2022-12-31T23:20:54.319Z,3.39
2022-12-31T23:23:25.851Z,3.25
2022-12-31T23:26:02.322Z,3.12
2022-12-31T23:28:30.233Z,3.11
2022-12-31T23:31:07.393Z,3.04
2022-12-31T23:33:35.329Z,3.11
2022-12-31T23:36:07.891Z,3.16
2022-12-31T23:38:37.593Z,3.08
2022-12-31T23:41:18.697Z,2.94
2022-12-31T23:43:50.076Z,2.79
2022-12-31T23:46:19.861Z,2.79
2022-12-31T23:48:49.882Z,2.74
2022-12-31T23:51:22.011Z,2.81
2022-12-31T23:53:53.431Z,2.98
2022-12-31T23:56:24.222Z,2.80
2022-12-31T23:58:59.255Z,2.96
